createdAt,value
2023-05-03T00:01:38.177Z,14.53
2023-05-03T00:04:06.228Z,16.43
2023-05-03T00:06:34.183Z,17.67
2023-05-03T00:09:02.501Z,14.70
2023-05-03T00:11:30.388Z,16.13
2023-05-03T00:13:58.253Z,18.23
2023-05-03T00:16:27.628Z,21.23
2023-05-03T00:18:55.500Z,19.60
2023-05-03T00:21:23.367Z,12.77
2023-05-03T00:23:51.272Z,16.90
2023-05-03T00:26:19.295Z,13.40
2023-05-03T00:28:47.182Z,14.63
2023-05-03T00:31:15.356Z,14.97
2023-05-03T00:33:44.699Z,17.67
2023-05-03T00:36:13.360Z,14.97
2023-05-03T00:38:41.492Z,15.70
2023-05-03T00:41:10.787Z,15.70
2023-05-03T00:43:38.740Z,17.90
2023-05-03T00:46:16.138Z,19.23
2023-05-03T00:48:46.952Z,18.47
2023-05-03T00:51:15.548Z,15.47
2023-05-03T00:53:43.839Z,14.30
2023-05-03T00:56:12.350Z,14.50
2023-05-03T00:58:40.698Z,16.53
2023-05-03T01:01:08.855Z,20.47
2023-05-03T01:03:37.728Z,19.87
2023-05-03T01:06:11.887Z,14.47
2023-05-03T01:08:42.488Z,15.53
2023-05-03T01:11:13.283Z,16.40
2023-05-03T01:13:44.540Z,18.50
2023-05-03T01:16:15.794Z,15.83
2023-05-03T01:18:46.653Z,16.63
2023-05-03T01:21:16.720Z,22.00
2023-05-03T01:23:47.548Z,13.17
2023-05-03T01:26:22.510Z,15.43
2023-05-03T01:28:50.399Z,15.00
2023-05-03T01:31:22.094Z,17.83
2023-05-03T01:33:54.997Z,13.30
2023-05-03T01:36:24.348Z,16.50
2023-05-03T01:38:52.228Z,15.80
2023-05-03T01:41:20.100Z,14.67
2023-05-03T01:43:49.371Z,12.07
2023-05-03T01:46:17.302Z,13.20
2023-05-03T01:48:45.219Z,13.43
2023-05-03T01:51:13.109Z,16.80
2023-05-03T01:53:41.844Z,12.07
2023-05-03T01:56:09.916Z,12.57
2023-05-03T01:58:37.834Z,14.57
2023-05-03T02:01:08.030Z,10.67
2023-05-03T02:03:36.064Z,14.27
2023-05-03T02:06:04.000Z,12.57
2023-05-03T02:08:31.944Z,12.73
2023-05-03T02:10:59.799Z,12.83
2023-05-03T02:13:27.676Z,16.50
2023-05-03T02:15:56.101Z,10.97
2023-05-03T02:18:26.290Z,14.90
2023-05-03T02:20:54.133Z,13.40
2023-05-03T02:23:22.070Z,16.13
2023-05-03T02:25:50.212Z,10.77
2023-05-03T02:28:18.137Z,13.33
2023-05-03T02:30:46.150Z,14.73
2023-05-03T02:33:14.053Z,11.67
2023-05-03T02:35:43.746Z,12.37
2023-05-03T02:38:11.759Z,9.67
2023-05-03T02:40:39.640Z,15.20
2023-05-03T02:43:07.558Z,10.80
2023-05-03T02:45:36.592Z,10.13
2023-05-03T02:48:04.805Z,12.43
2023-05-03T02:50:32.713Z,12.87
2023-05-03T02:53:02.104Z,7.77
2023-05-03T02:55:29.995Z,14.23
2023-05-03T02:57:57.861Z,11.17
2023-05-03T03:00:25.773Z,14.13
2023-05-03T03:02:53.650Z,9.23
2023-05-03T03:05:21.784Z,7.93
2023-05-03T03:07:49.630Z,11.80
2023-05-03T03:10:19.108Z,8.67
2023-05-03T03:12:47.447Z,12.53
2023-05-03T03:15:15.287Z,11.80
2023-05-03T03:17:43.204Z,13.13
2023-05-03T03:20:12.889Z,11.57
2023-05-03T03:22:40.917Z,8.53
2023-05-03T03:25:10.596Z,12.53
2023-05-03T03:27:40.072Z,12.93
2023-05-03T03:30:09.590Z,16.63
2023-05-03T03:32:37.616Z,13.13
2023-05-03T03:35:06.204Z,9.03
2023-05-03T03:37:34.116Z,11.00
2023-05-03T03:40:02.225Z,11.27
2023-05-03T03:42:30.328Z,10.13
2023-05-03T03:44:59.616Z,12.50
2023-05-03T03:47:27.587Z,11.83
2023-05-03T03:49:55.726Z,10.47
2023-05-03T03:52:23.626Z,10.63
2023-05-03T03:54:51.546Z,11.27
2023-05-03T03:57:19.422Z,12.67
2023-05-03T03:59:47.316Z,14.77
2023-05-03T04:02:16.605Z,10.00
2023-05-03T04:04:44.499Z,9.07
2023-05-03T04:07:12.656Z,11.03
2023-05-03T04:09:40.558Z,11.60
2023-05-03T04:12:08.606Z,9.00
2023-05-03T04:14:36.466Z,13.43
2023-05-03T04:17:04.770Z,8.77
2023-05-03T04:19:34.162Z,12.23
2023-05-03T04:22:02.115Z,9.60
2023-05-03T04:24:30.640Z,11.67
2023-05-03T04:26:58.894Z,7.90
2023-05-03T04:29:27.192Z,10.93
2023-05-03T04:31:55.067Z,12.33
2023-05-03T04:34:23.557Z,10.40
2023-05-03T04:36:52.829Z,11.90
2023-05-03T04:39:22.124Z,14.53
2023-05-03T04:41:50.007Z,12.73
2023-05-03T04:44:17.901Z,13.87
2023-05-03T04:46:46.774Z,10.27
2023-05-03T04:49:15.711Z,10.27
2023-05-03T04:51:43.660Z,13.90
2023-05-03T04:54:12.972Z,9.33
2023-05-03T04:56:40.842Z,15.40
2023-05-03T04:59:09.102Z,10.03
2023-05-03T05:01:36.954Z,13.00
2023-05-03T05:04:05.039Z,7.73
2023-05-03T05:06:32.966Z,14.93
2023-05-03T05:09:01.002Z,19.17
2023-05-03T05:11:30.273Z,11.60
2023-05-03T05:13:58.183Z,14.47
2023-05-03T05:16:26.824Z,17.27
2023-05-03T05:18:54.710Z,9.27
2023-05-03T05:21:22.582Z,10.93
2023-05-03T05:23:50.510Z,10.73
2023-05-03T05:26:18.396Z,10.83
2023-05-03T05:28:47.631Z,7.30
2023-05-03T05:31:15.690Z,8.57
2023-05-03T05:33:43.583Z,10.03
2023-05-03T05:36:11.457Z,10.43
2023-05-03T05:38:39.294Z,10.40
2023-05-03T05:41:07.269Z,12.77
2023-05-03T05:43:35.130Z,11.67
2023-05-03T05:46:04.826Z,9.40
2023-05-03T05:48:32.671Z,13.47
2023-05-03T05:51:00.507Z,9.93
2023-05-03T05:53:28.615Z,10.00
2023-05-03T05:55:56.563Z,11.53
2023-05-03T05:58:24.649Z,16.73
2023-05-03T06:00:52.896Z,11.43
2023-05-03T06:03:22.213Z,20.27
2023-05-03T06:05:50.459Z,13.10
2023-05-03T06:08:18.313Z,11.03
2023-05-03T06:10:46.174Z,12.50
2023-05-03T06:13:14.064Z,12.67
2023-05-03T06:15:42.140Z,14.53
2023-05-03T06:18:10.118Z,14.20
2023-05-03T06:20:39.529Z,11.07
2023-05-03T06:23:07.443Z,11.40
2023-05-03T06:25:36.250Z,13.20
2023-05-03T06:28:04.653Z,20.43
2023-05-03T06:30:32.721Z,13.30
2023-05-03T06:33:00.680Z,12.13
2023-05-03T06:35:28.641Z,14.30
2023-05-03T06:37:57.958Z,14.23
2023-05-03T06:40:27.399Z,13.00
2023-05-03T06:42:55.319Z,12.97
2023-05-03T06:45:23.222Z,11.17
2023-05-03T06:47:51.224Z,13.13
2023-05-03T06:50:20.181Z,18.07
2023-05-03T06:52:48.621Z,16.27
2023-05-03T06:55:18.087Z,12.70
2023-05-03T06:57:47.628Z,9.80
2023-05-03T07:00:16.534Z,19.87
2023-05-03T07:02:44.522Z,9.93
2023-05-03T07:05:12.752Z,12.13
2023-05-03T07:07:40.634Z,16.30
2023-05-03T07:10:09.229Z,14.10
2023-05-03T07:12:38.476Z,13.03
2023-05-03T07:15:07.144Z,15.90
2023-05-03T07:17:35.077Z,14.77
2023-05-03T07:20:03.898Z,11.00
2023-05-03T07:22:31.995Z,13.77
2023-05-03T07:25:00.091Z,11.50
2023-05-03T07:27:28.251Z,11.53
2023-05-03T07:29:57.840Z,13.97
2023-05-03T07:32:25.909Z,11.77
2023-05-03T07:34:53.880Z,11.73
2023-05-03T07:37:22.372Z,12.03
2023-05-03T07:39:52.159Z,15.53
2023-05-03T07:42:20.021Z,13.43
2023-05-03T07:44:47.905Z,15.77
2023-05-03T07:47:17.240Z,15.27
2023-05-03T07:49:45.142Z,15.00
2023-05-03T07:52:13.057Z,17.87
2023-05-03T07:54:43.036Z,12.77
2023-05-03T07:57:10.961Z,13.33
2023-05-03T07:59:39.016Z,21.23
2023-05-03T08:02:07.020Z,12.33
2023-05-03T08:04:36.593Z,15.10
2023-05-03T08:07:04.717Z,13.33
2023-05-03T08:09:32.546Z,13.33
2023-05-03T08:12:00.400Z,15.07
2023-05-03T08:14:28.515Z,15.37
2023-05-03T08:16:56.445Z,12.17
2023-05-03T08:19:24.292Z,14.67
2023-05-03T08:21:54.540Z,16.83
2023-05-03T08:24:22.427Z,11.40
2023-05-03T08:26:52.707Z,15.87
2023-05-03T08:29:21.153Z,13.83
2023-05-03T08:31:49.251Z,13.90
2023-05-03T08:34:17.219Z,20.93
2023-05-03T08:36:45.567Z,10.77
2023-05-03T08:39:15.380Z,11.97
2023-05-03T08:41:43.358Z,16.10
2023-05-03T08:44:13.672Z,16.43
2023-05-03T08:46:41.580Z,14.77
2023-05-03T08:49:09.461Z,15.30
2023-05-03T08:51:37.446Z,14.20
2023-05-03T08:54:05.552Z,11.07
2023-05-03T08:56:36.514Z,13.23
2023-05-03T08:59:07.973Z,13.47
2023-05-03T09:01:36.933Z,13.93
2023-05-03T09:04:05.322Z,14.83
2023-05-03T09:06:34.283Z,14.07
2023-05-03T09:09:02.568Z,14.13
2023-05-03T09:11:31.037Z,11.03
2023-05-03T09:14:11.038Z,18.00
2023-05-03T09:16:39.294Z,16.37
2023-05-03T09:19:09.489Z,18.63
2023-05-03T09:21:37.392Z,14.43
2023-05-03T09:24:13.667Z,18.33
2023-05-03T09:26:42.304Z,15.43
2023-05-03T09:29:11.541Z,12.33
2023-05-03T09:31:39.572Z,15.47
2023-05-03T09:34:22.333Z,18.00
2023-05-03T09:36:50.246Z,14.67
2023-05-03T09:39:18.264Z,13.27
2023-05-03T09:41:46.186Z,13.23
2023-05-03T09:44:15.482Z,15.53
2023-05-03T09:46:59.287Z,16.80
2023-05-03T09:49:27.179Z,19.23
2023-05-03T09:51:55.113Z,11.73
2023-05-03T09:54:23.684Z,13.70
2023-05-03T09:56:53.138Z,12.97
2023-05-03T09:59:22.359Z,15.90
2023-05-03T10:01:50.418Z,15.07
2023-05-03T10:04:19.744Z,19.33
2023-05-03T10:06:48.429Z,10.63
2023-05-03T10:09:30.158Z,12.73
2023-05-03T10:12:00.330Z,20.07
2023-05-03T10:14:29.719Z,12.47
2023-05-03T10:17:00.777Z,19.73
2023-05-03T10:19:30.720Z,13.10
2023-05-03T10:22:04.764Z,16.70
2023-05-03T10:24:32.754Z,15.27
2023-05-03T10:27:00.715Z,9.23
2023-05-03T10:29:54.019Z,14.27
2023-05-03T10:32:32.460Z,16.73
2023-05-03T10:35:05.813Z,13.20
2023-05-03T10:37:34.557Z,13.07
2023-05-03T10:40:13.805Z,14.43
2023-05-03T10:42:45.013Z,12.57
2023-05-03T10:45:25.895Z,12.03
2023-05-03T10:48:32.464Z,13.97
2023-05-03T10:51:38.943Z,11.47
2023-05-03T10:54:07.690Z,11.80
2023-05-03T10:56:35.523Z,12.20
2023-05-03T10:59:03.465Z,13.77
2023-05-03T11:01:34.388Z,11.27
2023-05-03T11:04:05.384Z,18.37
2023-05-03T11:06:34.508Z,11.87
2023-05-03T11:09:03.806Z,7.93
2023-05-03T11:11:32.270Z,12.37
2023-05-03T11:14:00.203Z,13.97
2023-05-03T11:16:28.423Z,15.30
2023-05-03T11:18:57.793Z,7.97
2023-05-03T11:21:26.209Z,10.57
2023-05-03T11:23:54.123Z,8.23
2023-05-03T11:26:26.528Z,14.83
2023-05-03T11:28:54.730Z,12.75
2023-05-03T11:31:22.950Z,10.13
2023-05-03T11:33:51.247Z,7.32
2023-05-03T11:36:20.533Z,6.70
2023-05-03T11:38:48.429Z,9.40
2023-05-03T11:41:17.514Z,7.03
2023-05-03T11:43:45.659Z,12.07
2023-05-03T11:46:14.309Z,14.20
2023-05-03T11:48:43.862Z,6.97
2023-05-03T11:51:12.618Z,9.23
2023-05-03T11:53:42.873Z,7.18
2023-05-03T11:56:17.193Z,6.63
2023-05-03T11:58:56.134Z,11.55
2023-05-03T12:01:24.616Z,8.05
2023-05-03T12:03:56.485Z,8.90
2023-05-03T12:06:25.568Z,10.82
2023-05-03T12:08:56.359Z,5.90
2023-05-03T12:11:27.353Z,7.88
2023-05-03T12:13:59.974Z,7.25
2023-05-03T12:16:28.203Z,10.07
2023-05-03T12:18:58.782Z,14.20
2023-05-03T12:21:54.088Z,5.95
2023-05-03T12:24:29.010Z,6.05
2023-05-03T12:26:57.836Z,6.45
2023-05-03T12:29:25.785Z,6.32
2023-05-03T12:31:53.758Z,6.40
2023-05-03T12:34:33.900Z,7.50
2023-05-03T12:37:06.081Z,4.45
2023-05-03T12:39:39.207Z,12.45
2023-05-03T12:42:08.875Z,4.85
2023-05-03T12:44:41.704Z,8.98
2023-05-03T12:47:10.537Z,9.35
2023-05-03T12:49:39.641Z,6.57
2023-05-03T12:54:42.262Z,11.07
2023-05-03T12:57:15.698Z,7.32
2023-05-03T12:59:50.420Z,5.65
2023-05-03T13:03:19.484Z,4.40
2023-05-03T13:05:12.583Z,6.60
2023-05-03T13:07:55.702Z,5.18
2023-05-03T13:10:27.130Z,7.60
2023-05-03T13:12:55.384Z,7.03
2023-05-03T13:15:25.099Z,9.23
2023-05-03T13:17:54.437Z,6.75
2023-05-03T13:20:22.711Z,7.70
2023-05-03T13:22:50.583Z,8.55
2023-05-03T13:25:18.551Z,7.07
2023-05-03T13:27:50.307Z,7.40
2023-05-03T13:30:21.441Z,9.13
2023-05-03T13:32:49.373Z,7.32
2023-05-03T13:35:18.049Z,6.35
2023-05-03T13:37:45.934Z,8.55
2023-05-03T13:40:15.338Z,6.25
2023-05-03T13:42:43.236Z,7.95
2023-05-03T13:45:13.636Z,8.80
2023-05-03T13:48:04.876Z,12.48
2023-05-03T13:50:30.396Z,5.97
2023-05-03T13:52:58.366Z,6.95
2023-05-03T13:55:27.076Z,5.28
2023-05-03T13:57:55.060Z,6.70
2023-05-03T14:00:24.627Z,6.93
2023-05-03T14:02:52.591Z,3.88
2023-05-03T14:05:20.892Z,5.60
2023-05-03T14:07:48.855Z,8.13
2023-05-03T14:12:45.289Z,10.55
2023-05-03T14:15:13.574Z,7.93
2023-05-03T14:17:43.630Z,4.38
2023-05-03T14:20:12.429Z,7.68
2023-05-03T14:22:40.485Z,4.43
2023-05-03T14:25:09.657Z,10.70
2023-05-03T14:27:37.597Z,7.65
2023-05-03T14:30:07.296Z,4.40
2023-05-03T14:32:35.283Z,4.80
2023-05-03T14:35:05.019Z,7.47
2023-05-03T14:37:33.354Z,4.75
2023-05-03T14:40:02.234Z,5.10
2023-05-03T14:42:32.031Z,6.30
2023-05-03T14:44:59.930Z,6.25
2023-05-03T14:47:27.935Z,6.28
2023-05-03T14:49:56.321Z,5.13
2023-05-03T14:52:25.574Z,6.28
2023-05-03T14:54:54.555Z,7.90
2023-05-03T14:57:22.471Z,5.88
2023-05-03T14:59:50.512Z,9.70
2023-05-03T15:02:19.259Z,5.70
2023-05-03T15:04:47.300Z,4.25
2023-05-03T15:07:15.475Z,7.15
2023-05-03T15:09:44.900Z,4.30
2023-05-03T15:12:12.817Z,6.70
2023-05-03T15:14:40.867Z,5.55
2023-05-03T15:17:08.895Z,5.82
2023-05-03T15:19:37.007Z,8.38
2023-05-03T15:22:04.887Z,3.80
2023-05-03T15:24:32.933Z,3.83
2023-05-03T15:27:04.618Z,4.97
2023-05-03T15:29:32.521Z,3.40
2023-05-03T15:32:01.701Z,5.10
2023-05-03T15:34:29.618Z,5.50
2023-05-03T15:36:57.558Z,3.88
2023-05-03T15:39:25.420Z,3.50
2023-05-03T15:41:53.499Z,6.50
2023-05-03T15:44:22.789Z,7.10
2023-05-03T15:46:50.914Z,6.10
2023-05-03T15:49:18.851Z,6.03
2023-05-03T15:51:47.082Z,4.60
2023-05-03T15:54:14.984Z,4.30
2023-05-03T15:56:43.017Z,4.28
2023-05-03T15:59:15.005Z,4.38
2023-05-03T16:01:44.370Z,3.20
2023-05-03T16:04:12.251Z,7.05
2023-05-03T16:06:40.365Z,5.20
2023-05-03T16:09:08.275Z,4.03
2023-05-03T16:11:36.340Z,6.82
2023-05-03T16:14:04.909Z,3.65
2023-05-03T16:16:32.818Z,5.13
2023-05-03T16:19:02.114Z,7.43
2023-05-03T16:21:30.080Z,4.10
2023-05-03T16:23:57.942Z,5.97
2023-05-03T16:26:26.078Z,5.05
2023-05-03T16:28:53.956Z,5.82
2023-05-03T16:31:22.965Z,4.35
2023-05-03T16:33:50.940Z,7.85
2023-05-03T16:36:20.187Z,7.30
2023-05-03T16:38:48.891Z,4.32
2023-05-03T16:41:16.773Z,6.82
2023-05-03T16:43:44.739Z,5.63
2023-05-03T16:46:12.804Z,4.18
2023-05-03T16:48:40.745Z,6.15
2023-05-03T16:51:08.750Z,5.82
2023-05-03T16:53:38.029Z,4.40
2023-05-03T16:56:06.400Z,9.55
2023-05-03T16:58:34.267Z,9.02
2023-05-03T17:01:02.459Z,8.60
2023-05-03T17:03:30.784Z,6.15
2023-05-03T17:06:01.416Z,11.48
2023-05-03T17:08:30.236Z,14.13
2023-05-03T17:11:01.546Z,10.82
2023-05-03T17:13:29.560Z,10.77
2023-05-03T17:15:57.434Z,8.75
2023-05-03T17:18:25.403Z,10.38
2023-05-03T17:20:53.358Z,13.35
2023-05-03T17:23:21.337Z,13.00
2023-05-03T17:25:56.322Z,9.85
2023-05-03T17:28:25.561Z,11.13
2023-05-03T17:30:55.102Z,11.65
2023-05-03T17:33:22.981Z,6.75
2023-05-03T17:35:51.219Z,9.20
2023-05-03T17:38:19.925Z,10.10
2023-05-03T17:40:48.900Z,16.30
2023-05-03T17:43:17.719Z,10.00
2023-05-03T17:45:48.426Z,9.87
2023-05-03T17:48:18.481Z,9.70
2023-05-03T17:50:46.771Z,10.30
2023-05-03T17:53:18.401Z,11.43
2023-05-03T17:55:46.313Z,10.37
2023-05-03T17:58:14.143Z,9.50
2023-05-03T18:00:43.196Z,9.93
2023-05-03T18:03:13.361Z,11.67
2023-05-03T18:05:41.314Z,14.63
2023-05-03T18:08:09.349Z,11.73
2023-05-03T18:10:37.408Z,13.77
2023-05-03T18:13:05.489Z,14.67
2023-05-03T18:15:33.393Z,20.03
2023-05-03T18:18:01.315Z,11.50
2023-05-03T18:20:31.040Z,13.00
2023-05-03T18:22:58.929Z,18.07
2023-05-03T18:25:26.884Z,18.07
2023-05-03T18:27:54.791Z,15.77
2023-05-03T18:30:23.404Z,10.47
2023-05-03T18:32:51.345Z,14.90
2023-05-03T18:35:19.514Z,15.50
2023-05-03T18:37:48.723Z,22.37
2023-05-03T18:40:17.124Z,17.57
2023-05-03T18:42:45.139Z,16.03
2023-05-03T18:45:15.130Z,17.20
2023-05-03T18:47:43.029Z,19.20
2023-05-03T18:50:11.293Z,20.03
2023-05-03T18:52:39.756Z,18.47
2023-05-03T18:55:09.774Z,12.30
2023-05-03T18:57:38.191Z,13.27
2023-05-03T19:00:07.415Z,19.80
2023-05-03T19:02:35.325Z,13.57
2023-05-03T19:05:03.253Z,15.73
2023-05-03T19:07:31.224Z,13.43
2023-05-03T19:09:59.155Z,18.07
2023-05-03T19:12:28.480Z,16.23
2023-05-03T19:14:56.430Z,12.90
2023-05-03T19:17:24.433Z,15.33
2023-05-03T19:19:52.376Z,14.67
2023-05-03T19:22:20.298Z,13.47
2023-05-03T19:24:48.246Z,17.43
2023-05-03T19:27:16.963Z,12.57
2023-05-03T19:29:46.325Z,15.50
2023-05-03T19:32:14.459Z,11.63
2023-05-03T19:34:42.426Z,15.80
2023-05-03T19:37:10.574Z,12.33
2023-05-03T19:39:38.651Z,14.60
2023-05-03T19:42:10.148Z,18.10
2023-05-03T19:44:38.121Z,13.87
2023-05-03T19:47:07.445Z,16.27
2023-05-03T19:49:35.308Z,13.23
2023-05-03T19:52:06.079Z,16.23
2023-05-03T19:54:34.055Z,19.17
2023-05-03T19:57:04.747Z,18.73
2023-05-03T19:59:32.669Z,14.50
2023-05-03T20:02:00.641Z,17.03
2023-05-03T20:04:30.065Z,20.57
2023-05-03T20:06:57.984Z,16.77
2023-05-03T20:09:26.102Z,15.03
2023-05-03T20:11:58.771Z,16.77
2023-05-03T20:14:27.250Z,17.23
2023-05-03T20:16:56.997Z,13.40
2023-05-03T20:19:25.578Z,19.90
2023-05-03T20:21:54.817Z,11.10
2023-05-03T20:24:22.754Z,14.67
2023-05-03T20:26:50.704Z,16.73
2023-05-03T20:29:18.695Z,15.97
2023-05-03T20:31:48.323Z,14.87
2023-05-03T20:34:16.746Z,16.37
2023-05-03T20:36:44.965Z,16.00
2023-05-03T20:39:14.717Z,13.73
2023-05-03T20:41:42.566Z,13.80
2023-05-03T20:44:10.558Z,13.17
2023-05-03T20:46:38.968Z,14.67
2023-05-03T20:49:08.302Z,12.83
2023-05-03T20:51:37.750Z,14.90
2023-05-03T20:54:05.868Z,16.50
2023-05-03T20:56:35.121Z,14.73
2023-05-03T20:59:03.787Z,13.57
2023-05-03T21:01:32.047Z,13.63
2023-05-03T21:03:59.938Z,13.47
2023-05-03T21:06:28.244Z,14.40
2023-05-03T21:08:56.148Z,17.63
2023-05-03T21:11:24.022Z,14.80
2023-05-03T21:13:53.656Z,14.73
2023-05-03T21:16:21.533Z,12.53
2023-05-03T21:18:49.404Z,12.97
2023-05-03T21:21:17.359Z,16.30
2023-05-03T21:23:45.369Z,11.10
2023-05-03T21:26:13.343Z,12.80
2023-05-03T21:28:41.331Z,12.90
2023-05-03T21:31:10.643Z,15.03
2023-05-03T21:33:38.617Z,13.03
2023-05-03T21:36:07.049Z,14.67
2023-05-03T21:38:35.898Z,12.40
2023-05-03T21:41:05.227Z,14.40
2023-05-03T21:43:33.341Z,14.17
2023-05-03T21:46:01.259Z,14.67
2023-05-03T21:48:31.368Z,16.17
2023-05-03T21:50:59.243Z,13.97
2023-05-03T21:53:27.140Z,20.73
2023-05-03T21:55:55.078Z,15.33
2023-05-03T21:58:22.998Z,16.53
2023-05-03T22:00:50.837Z,18.63
2023-05-03T22:03:18.898Z,15.20
2023-05-03T22:05:50.467Z,14.30
2023-05-03T22:08:19.096Z,16.20
2023-05-03T22:10:46.992Z,9.67
2023-05-03T22:13:14.960Z,14.77
2023-05-03T22:15:42.938Z,11.73
2023-05-03T22:18:11.512Z,16.40
2023-05-03T22:20:39.430Z,17.77
2023-05-03T22:23:08.757Z,13.67
2023-05-03T22:25:36.647Z,10.07
2023-05-03T22:28:04.537Z,10.93
2023-05-03T22:30:32.410Z,13.47
2023-05-03T22:33:00.315Z,16.40
2023-05-03T22:35:28.533Z,17.67
2023-05-03T22:37:56.414Z,16.30
2023-05-03T22:40:25.836Z,15.13
2023-05-03T22:42:53.732Z,12.37
2023-05-03T22:45:21.717Z,18.77
2023-05-03T22:47:49.759Z,18.70
2023-05-03T22:50:17.853Z,15.73
2023-05-03T22:52:45.745Z,24.00
2023-05-03T22:55:13.812Z,22.73
2023-05-03T22:57:43.080Z,18.93
2023-05-03T23:00:12.402Z,17.03
2023-05-03T23:02:40.319Z,18.67
2023-05-03T23:05:09.184Z,21.40
2023-05-03T23:07:37.078Z,17.97
2023-05-03T23:10:06.132Z,25.53
2023-05-03T23:12:34.608Z,16.90
2023-05-03T23:15:03.902Z,18.80
2023-05-03T23:17:31.804Z,22.93
2023-05-03T23:19:59.714Z,19.40
2023-05-03T23:22:27.615Z,16.83
2023-05-03T23:24:55.481Z,18.43
2023-05-03T23:27:23.338Z,16.47
2023-05-03T23:29:52.007Z,22.13
2023-05-03T23:32:21.973Z,17.23
2023-05-03T23:34:50.151Z,21.47
2023-05-03T23:37:18.025Z,17.20
2023-05-03T23:39:45.920Z,25.07
2023-05-03T23:42:13.865Z,16.93
2023-05-03T23:44:50.864Z,22.80
2023-05-03T23:47:23.658Z,19.80
2023-05-03T23:49:52.007Z,15.87
2023-05-03T23:52:20.495Z,21.67
2023-05-03T23:54:48.598Z,16.40
2023-05-03T23:57:16.474Z,19.13
2023-05-03T23:59:44.358Z,18.13
